CFV2 weather

Beiseker Airport
Beiseker, Alberta, Canada

Public forecast

Using degrees Celsius for public forecast. Weather courtesy of forecast.io.

Closest aviation weather report (METAR) to Beiseker Airport

Closest report is Calgary International Airport, 26.6 nm (49.2 km) SW. Retrieved 2019/12/09 04:00 UTC (44 minutes ago):

CYYC 090400Z 23005KT 10SM BKN080 M06/M11 A2991 RMK AC6 VIRGA ALQDS SLP206

Closest aviation forecast (TAF) to Beiseker Airport

Closest forecast is Calgary International Airport, 26.6 nm (49.2 km) SW. Retrieved 2019-12-09 03:45 UTC (59 minutes ago):

TAF CYYC 090242Z 0903/0924 28008KT P6SM BKN100 OVC200 FM090600 28010KT P6SM SCT060 OVC120 FM091600 30008KT P6SM SCT015 OVC040 TEMPO 0916/0924 2SM -SN OVC015 RMK NXT FCST BY 090600Z